Observations for BELFAST ALDERGROVE, United Kingdom (EGAA)

EGAA 112250Z 13011KT 9999 BKN008 BKN015 10/08 Q1015 
EGAA 112220Z 13012KT 9999 FEW010 SCT018 BKN023 10/08 Q1014  
EGAA 112150Z 13012KT 9999 FEW008 BKN018 BKN038 10/08 Q1014  
EGAA 112120Z 13012KT 9999 BKN022 09/08 Q1014
EGAA 112050Z 13011KT 9999 FEW024 BKN035 10/08 Q1014 
EGAA 112020Z 14011KT 9999 -RA FEW010 SCT015 BKN022 10/08 Q1014  
EGAA 111950Z 16008KT 130V200 9999 BKN010 10/08 Q1015
EGAA 111920Z 14011KT 9999 SCT014 SCT018 BKN027 10/08 Q1014  
EGAA 111850Z 15011KT 9999 FEW019 BKN029 10/08 Q1015 REDZ
EGAA 111820Z 15011KT 8000 DZ FEW007 SCT014 BKN019 09/08 Q1015   
EGAA 111750Z 15009KT 9999 FEW007 SCT016 BKN028 09/08 Q1015  
EGAA 111720Z 14011KT 9000 -RA SCT006 SCT010 BKN018 10/08 Q1015  
EGAA 111720Z 14011KT 9000 SCT006 SCT010 BKN018 10/08 Q1015
EGAA 111720Z 14010KT 9000 SCT006 BKN010 10/08 Q1015
EGAA 111650Z 13011KT 9999 BKN008 BKN013 BKN025 10/08 Q1015  
EGAA 111620Z 14012KT 9999 SCT009 BKN014 10/08 Q1015 
EGAA 111520Z 14012KT 9999 BKN016 10/08 Q1015
EGAA 111450Z 13010KT 9999 FEW013 BKN015 10/07 Q1016 
EGAA 111420Z 15012KT 9999 BKN010 10/08 Q1016
EGAA 111350Z 16011KT 9999 BKN012 11/08 Q1016
EGAA 111320Z 13006KT 110V170 9999 BKN013 11/08 Q1016
EGAA 111250Z 14007KT 9999 SCT011 BKN016 11/08 Q1017 
EGAA 111220Z 15008KT 130V190 9999 SCT010 BKN014 10/08 Q1017 
EGAA 111150Z 16009KT 9999 BKN014 11/08 Q1018
EGAA 111120Z 16008KT 130V190 9999 SCT011 10/08 Q1018
EGAA 111050Z 15010KT 9999 SCT010 10/08 Q1018
EGAA 111020Z 14011KT 9999 FEW008 10/08 Q1018
EGAA 110950Z 14011KT 9999 BKN007 10/08 Q1018
EGAA 110920Z 14010KT 9999 BKN006 09/08 Q1018
EGAA 110850Z 13006KT 080V160 9999 BKN006 09/08 Q1018
EGAA 110820Z 12005KT 080V160 9999 BKN007 08/08 Q1018
EGAA 110750Z 12003KT 9000 SCT007 08/07 Q1018
EGAA 110720Z 13004KT 9000 SCT008 07/07 Q1019
EGAA 110650Z 00000KT 9000 NSC 07/07 Q1019   
EGAA 110620Z 08002KT CAVOK 07/07 Q1019  
EGAA 110550Z VRB03KT CAVOK 07/06 Q1019  
EGAA 110520Z 09004KT CAVOK 08/07 Q1019  
EGAA 110450Z 12003KT 9999 SCT008 09/07 Q1020
EGAA 110420Z AUTO 15005KT 120V190 9999 OVC007/// 09/08 Q1020
EGAA 110350Z AUTO 14005KT 9000 OVC006/// 09/08 Q1020
EGAA 110320Z AUTO 16005KT 9000 OVC006/// 09/08 Q1021
EGAA 110250Z 17005KT 130V210 9000 BKN006 09/08 Q1021
EGAA 110220Z 17004KT 7000 BKN006 09/08 Q1021
EGAA 110150Z 17005KT 140V220 6000 BKN003 BKN007 09/08 Q1021 
EGAA 110120Z 18005KT 3900 HZ BKN003 BKN009 09/08 Q1022  
EGAA 110050Z 17006KT 140V220 6000 BKN003 09/08 Q1022
EGAA 110020Z 18006KT 140V210 8000 BKN004 09/08 Q1022
EGAA 102350Z 17005KT 9999 BKN006 09/08 Q1022
EGAA 102320Z 16005KT 9999 BKN006 BKN014 OVC028 09/07 Q1022  
EGAA 102250Z 16005KT 130V190 9999 SCT006 BKN012 09/07 Q1022 
EGAA 102220Z 17006KT 9999 BKN008 09/07 Q1023